Time,TemperatureF,DewpointF,PressureIn,WindDirection,WindDirectionDegrees,WindSpeedMPH,WindSpeedGustMPH,Humidity,HourlyPrecipIn,Conditions,Clouds,dailyrainin,SolarRadiationWatts/m^2,SoftwareType,DateUTC
2013-04-19 00:03:00,31.0,31.0,-100.00,NNW,336,7.0,12.0,99,0.05,,,0.89,0.000000,,2013-04-19 05:03:00,
2013-04-19 00:32:00,31.0,31.0,-100.00,NNW,348,7.0,15.0,99,0.04,,,0.90,0.000000,,2013-04-19 05:32:00,
2013-04-19 00:42:00,31.0,31.0,-100.00,NNW,348,7.0,15.0,99,0.04,,,0.90,0.000000,,2013-04-19 05:42:00,
2013-04-19 00:52:00,31.0,31.0,-100.00,NNW,348,7.0,15.0,99,0.04,,,0.90,0.000000,,2013-04-19 05:52:00,
2013-04-19 01:02:00,31.0,31.0,-100.00,NNW,348,7.0,15.0,99,0.04,,,0.90,0.000000,,2013-04-19 06:02:00,
2013-04-19 01:32:00,31.0,31.0,-100.00,NNW,346,7.0,17.0,99,0.02,,,0.92,0.000000,,2013-04-19 06:32:00,
2013-04-19 01:42:00,31.0,31.0,-100.00,NNW,346,7.0,17.0,99,0.02,,,0.92,0.000000,,2013-04-19 06:42:00,
2013-04-19 01:53:00,31.0,31.0,-100.00,NNW,346,7.0,17.0,99,0.02,,,0.92,0.000000,,2013-04-19 06:53:00,
2013-04-19 02:02:00,31.0,31.0,-100.00,NNW,346,7.0,17.0,99,0.02,,,0.92,0.000000,,2013-04-19 07:02:00,
2013-04-19 03:33:00,30.0,29.0,-100.00,North,351,8.0,14.0,97,-99.99,,,0.91,0.000000,,2013-04-19 08:33:00,
2013-04-19 03:42:00,30.0,29.0,-100.00,North,351,8.0,14.0,97,-99.99,,,0.91,0.000000,,2013-04-19 08:42:00,
2013-04-19 03:52:00,30.0,29.0,-100.00,North,351,8.0,14.0,97,-99.99,,,0.91,0.000000,,2013-04-19 08:52:00,
2013-04-19 04:01:00,30.0,29.0,-100.00,North,351,8.0,14.0,97,-99.99,,,0.91,0.000000,,2013-04-19 09:01:00,
2013-04-19 04:33:00,30.0,29.0,-100.00,NNW,344,8.0,17.0,96,0.00,,,0.89,0.000000,,2013-04-19 09:33:00,
2013-04-19 04:43:00,30.0,29.0,-100.00,NNW,344,8.0,17.0,96,0.00,,,0.89,0.000000,,2013-04-19 09:43:00,
2013-04-19 04:52:00,30.0,29.0,-100.00,NNW,344,8.0,17.0,96,0.00,,,0.89,0.000000,,2013-04-19 09:52:00,
2013-04-19 05:02:00,30.0,29.0,-100.00,NNW,344,8.0,17.0,96,0.00,,,0.89,0.000000,,2013-04-19 10:02:00,
2013-04-19 05:33:00,29.0,27.0,-100.00,NNW,344,9.0,18.0,94,0.00,,,0.88,0.000000,,2013-04-19 10:33:00,
2013-04-19 05:42:00,29.0,27.0,-100.00,NNW,344,9.0,18.0,94,0.00,,,0.88,0.000000,,2013-04-19 10:42:00,
2013-04-19 05:52:00,29.0,27.0,-100.00,NNW,344,9.0,18.0,94,0.00,,,0.88,0.000000,,2013-04-19 10:52:00,
2013-04-19 06:03:00,29.0,27.0,-100.00,NNW,344,9.0,18.0,94,0.00,,,0.88,0.000000,,2013-04-19 11:03:00,
2013-04-19 06:32:00,29.0,27.0,-100.00,NNW,335,8.0,17.0,93,0.00,,,0.86,0.000000,,2013-04-19 11:32:00,
2013-04-19 06:43:00,29.0,27.0,-100.00,NNW,335,8.0,17.0,93,0.00,,,0.86,0.000000,,2013-04-19 11:43:00,
2013-04-19 06:52:00,29.0,27.0,-100.00,NNW,335,8.0,17.0,93,0.00,,,0.86,0.000000,,2013-04-19 11:52:00,
2013-04-19 07:03:00,29.0,27.0,-100.00,NNW,335,8.0,17.0,93,0.00,,,0.86,0.000000,,2013-04-19 12:03:00,
2013-04-19 07:32:00,28.0,25.0,-100.00,NNW,338,8.0,18.0,90,0.00,,,0.85,11.000000,,2013-04-19 12:32:00,
2013-04-19 07:42:00,28.0,25.0,-100.00,NNW,338,8.0,18.0,90,0.00,,,0.85,11.000000,,2013-04-19 12:42:00,
2013-04-19 07:53:00,28.0,25.0,-100.00,NNW,338,8.0,18.0,90,0.00,,,0.85,11.000000,,2013-04-19 12:53:00,
2013-04-19 08:01:00,28.0,25.0,-100.00,NNW,338,8.0,18.0,90,0.00,,,0.85,11.000000,,2013-04-19 13:01:00,
2013-04-19 08:32:00,30.0,27.0,-100.00,NNW,342,10.0,19.0,88,0.01,,,0.86,81.000000,,2013-04-19 13:32:00,
2013-04-19 08:42:00,30.0,27.0,-100.00,NNW,342,10.0,19.0,88,0.01,,,0.86,81.000000,,2013-04-19 13:42:00,
2013-04-19 08:52:00,30.0,27.0,-100.00,NNW,342,10.0,19.0,88,0.01,,,0.86,81.000000,,2013-04-19 13:52:00,
2013-04-19 09:02:00,30.0,27.0,-100.00,NNW,342,10.0,19.0,88,0.01,,,0.86,81.000000,,2013-04-19 14:02:00,
2013-04-19 09:32:00,30.0,26.0,-100.00,North,349,10.0,19.0,84,0.00,,,0.86,166.000000,,2013-04-19 14:32:00,
2013-04-19 09:43:00,30.0,26.0,-100.00,North,349,10.0,19.0,84,0.00,,,0.86,166.000000,,2013-04-19 14:43:00,
2013-04-19 09:52:00,30.0,26.0,-100.00,North,349,10.0,19.0,84,0.00,,,0.86,166.000000,,2013-04-19 14:52:00,
2013-04-19 10:01:00,30.0,26.0,-100.00,North,349,10.0,19.0,84,0.00,,,0.86,166.000000,,2013-04-19 15:01:00,
2013-04-19 10:33:00,32.0,26.0,-100.00,North,349,12.0,19.0,79,0.00,,,0.86,281.000000,,2013-04-19 15:33:00,
2013-04-19 10:43:00,32.0,26.0,-100.00,North,349,12.0,19.0,79,0.00,,,0.86,281.000000,,2013-04-19 15:43:00,
2013-04-19 10:52:00,32.0,26.0,-100.00,North,349,12.0,19.0,79,0.00,,,0.86,281.000000,,2013-04-19 15:52:00,
2013-04-19 11:03:00,32.0,26.0,-100.00,North,349,12.0,19.0,79,0.00,,,0.86,281.000000,,2013-04-19 16:03:00,
2013-04-19 11:33:00,33.0,26.0,-100.00,NNW,339,9.0,23.0,74,0.00,,,0.86,415.000000,,2013-04-19 16:33:00,
2013-04-19 11:43:00,33.0,26.0,-100.00,NNW,339,9.0,23.0,74,0.00,,,0.86,415.000000,,2013-04-19 16:43:00,
2013-04-19 11:53:00,33.0,26.0,-100.00,NNW,339,9.0,23.0,74,0.00,,,0.86,415.000000,,2013-04-19 16:53:00,
2013-04-19 12:02:00,33.0,26.0,-100.00,NNW,339,9.0,23.0,74,0.00,,,0.86,415.000000,,2013-04-19 17:02:00,
2013-04-19 12:33:00,34.0,27.0,-100.00,NNW,329,11.0,21.0,74,0.00,,,0.86,520.000000,,2013-04-19 17:33:00,
2013-04-19 12:43:00,34.0,27.0,-100.00,NNW,329,11.0,21.0,74,0.00,,,0.86,520.000000,,2013-04-19 17:43:00,
2013-04-19 12:52:00,34.0,27.0,-100.00,NNW,329,11.0,21.0,74,0.00,,,0.86,520.000000,,2013-04-19 17:52:00,
2013-04-19 13:02:00,34.0,27.0,-100.00,NNW,329,11.0,21.0,74,0.00,,,0.86,520.000000,,2013-04-19 18:02:00,
2013-04-19 14:32:00,35.0,23.0,-100.00,NNW,337,11.0,24.0,60,-99.99,,,0.74,567.000000,,2013-04-19 19:32:00,
2013-04-19 14:42:00,35.0,23.0,-100.00,NNW,337,11.0,24.0,60,-99.99,,,0.74,567.000000,,2013-04-19 19:42:00,
2013-04-19 14:52:00,35.0,23.0,-100.00,NNW,337,11.0,24.0,60,-99.99,,,0.74,567.000000,,2013-04-19 19:52:00,
2013-04-19 15:02:00,35.0,23.0,-100.00,NNW,337,11.0,24.0,60,-99.99,,,0.74,567.000000,,2013-04-19 20:02:00,
2013-04-19 15:32:00,36.0,25.0,-100.00,NNW,348,12.0,21.0,65,0.00,,,0.68,528.000000,,2013-04-19 20:32:00,
2013-04-19 15:42:00,36.0,25.0,-100.00,NNW,348,12.0,21.0,65,0.00,,,0.68,528.000000,,2013-04-19 20:42:00,
2013-04-19 15:52:00,36.0,25.0,-100.00,NNW,348,12.0,21.0,65,0.00,,,0.68,528.000000,,2013-04-19 20:52:00,
2013-04-19 16:01:00,36.0,25.0,-100.00,NNW,348,12.0,21.0,65,0.00,,,0.68,528.000000,,2013-04-19 21:01:00,
2013-04-19 17:33:00,38.0,22.0,-100.00,North,350,12.0,25.0,52,-99.99,,,0.55,543.000000,,2013-04-19 22:33:00,
2013-04-19 17:42:00,38.0,22.0,-100.00,North,350,12.0,25.0,52,-99.99,,,0.55,543.000000,,2013-04-19 22:42:00,
2013-04-19 17:52:00,38.0,22.0,-100.00,North,350,12.0,25.0,52,-99.99,,,0.55,543.000000,,2013-04-19 22:52:00,
2013-04-19 18:03:00,38.0,22.0,-100.00,North,350,12.0,25.0,52,-99.99,,,0.55,543.000000,,2013-04-19 23:03:00,
2013-04-19 18:32:00,38.0,22.0,-100.00,NNW,338,11.0,25.0,53,0.00,,,0.44,331.000000,,2013-04-19 23:32:00,
2013-04-19 18:42:00,38.0,22.0,-100.00,NNW,338,11.0,25.0,53,0.00,,,0.44,331.000000,,2013-04-19 23:42:00,
2013-04-19 18:52:00,38.0,22.0,-100.00,NNW,338,11.0,25.0,53,0.00,,,0.44,331.000000,,2013-04-19 23:52:00,
2013-04-19 19:02:00,38.0,22.0,-100.00,NNW,338,11.0,25.0,53,0.00,,,0.44,331.000000,,2013-04-20 00:02:00,
2013-04-19 20:32:00,32.0,18.0,-100.00,NNW,330,3.0,16.0,56,-99.99,,,0.25,37.000000,,2013-04-20 01:32:00,
2013-04-19 20:42:00,32.0,18.0,-100.00,NNW,330,3.0,16.0,56,-99.99,,,0.25,37.000000,,2013-04-20 01:42:00,
2013-04-19 20:52:00,32.0,18.0,-100.00,NNW,330,3.0,16.0,56,-99.99,,,0.25,37.000000,,2013-04-20 01:52:00,
2013-04-19 21:01:00,32.0,18.0,-100.00,NNW,330,3.0,16.0,56,-99.99,,,0.25,37.000000,,2013-04-20 02:01:00,
2013-04-19 21:32:00,25.0,20.0,-100.00,NE,47,0.0,4.0,82,0.00,,,0.17,0.000000,,2013-04-20 02:32:00,
2013-04-19 21:42:00,25.0,20.0,-100.00,NE,47,0.0,4.0,82,0.00,,,0.17,0.000000,,2013-04-20 02:42:00,
2013-04-19 21:52:00,25.0,20.0,-100.00,NE,47,0.0,4.0,82,0.00,,,0.17,0.000000,,2013-04-20 02:52:00,
2013-04-19 22:01:00,25.0,20.0,-100.00,NE,47,0.0,4.0,82,0.00,,,0.17,0.000000,,2013-04-20 03:01:00,
2013-04-19 22:33:00,22.0,18.0,-100.00,WSW,252,2.0,4.0,85,0.00,,,0.13,0.000000,,2013-04-20 03:33:00,
2013-04-19 22:43:00,22.0,18.0,-100.00,WSW,252,2.0,4.0,85,0.00,,,0.13,0.000000,,2013-04-20 03:43:00,
2013-04-19 22:53:00,22.0,18.0,-100.00,WSW,252,2.0,4.0,85,0.00,,,0.13,0.000000,,2013-04-20 03:53:00,
2013-04-19 23:03:00,22.0,18.0,-100.00,WSW,252,2.0,4.0,85,0.00,,,0.13,0.000000,,2013-04-20 04:03:00,
2013-04-19 23:33:00,20.0,17.0,-100.00,WNW,284,2.0,4.0,87,0.00,,,0.08,0.000000,,2013-04-20 04:33:00,
2013-04-19 23:43:00,20.0,17.0,-100.00,WNW,284,2.0,4.0,87,0.00,,,0.08,0.000000,,2013-04-20 04:43:00,
2013-04-19 23:53:00,20.0,17.0,-100.00,WNW,284,2.0,4.0,87,0.00,,,0.08,0.000000,,2013-04-20 04:53:00,